Time;durP1;ratioP1;P1;durP2;ratioP2;P2;SDS_P1;SDS_P2;PMS_P1;PMS_P2;Temp;Humidity;BMP_temperature;BMP_pressure;BME280_temperature;BME280_humidity;BME280_pressure;Samples;Min_cycle;Max_cycle;Signal;HPM_P1;HPM_P2
2023/05/20 00:01:47;;;;;;;13.50;7.87;;;13.80;99.90;;;13.92;69.55;95291.97;5041358;28;20487;-64
2023/05/20 00:04:15;;;;;;;10.43;7.57;;;13.80;99.90;;;13.89;69.47;95287.81;5038107;28;20547;-62
2023/05/20 00:06:42;;;;;;;18.23;9.33;;;13.80;99.90;;;13.87;69.75;95291.59;5049501;28;20502;-59
2023/05/20 00:09:09;;;;;;;15.50;8.63;;;13.80;99.90;;;13.85;69.74;95289.09;5036888;28;20955;-58
2023/05/20 00:11:37;;;;;;;10.53;8.63;;;13.70;99.90;;;13.82;69.84;95289.41;5038965;28;20502;-64
2023/05/20 00:14:04;;;;;;;10.10;7.90;;;13.70;99.90;;;13.80;69.81;95286.06;5040511;28;20530;-64
2023/05/20 00:16:31;;;;;;;9.17;7.73;;;13.70;99.90;;;13.79;70.03;95281.78;5040570;28;20590;-58
2023/05/20 00:19:00;;;;;;;9.07;7.40;;;13.60;99.90;;;13.77;69.83;95286.34;5039937;28;20448;-59
2023/05/20 00:21:28;;;;;;;23.93;7.87;;;13.60;99.90;;;13.77;70.09;95284.56;5040245;28;20546;-63
2023/05/20 00:23:55;;;;;;;15.30;8.70;;;13.70;99.90;;;13.76;70.36;95276.78;5041626;28;20455;-61
2023/05/20 00:26:23;;;;;;;15.47;8.90;;;13.60;99.90;;;13.76;70.15;95276.78;5041018;28;20559;-61
2023/05/20 00:28:50;;;;;;;9.97;8.43;;;13.60;99.90;;;13.73;70.36;95271.78;5040643;28;20495;-60
2023/05/20 00:31:17;;;;;;;11.57;8.50;;;13.60;99.90;;;13.72;70.11;95270.13;5038953;28;20479;-59
2023/05/20 00:33:44;;;;;;;16.03;8.53;;;13.50;99.90;;;13.70;70.11;95274.72;5043140;28;20459;-65
2023/05/20 00:36:13;;;;;;;17.50;8.17;;;13.50;99.90;;;13.68;70.23;95268.75;5041497;28;20491;-60
2023/05/20 00:38:40;;;;;;;18.90;8.70;;;13.50;99.90;;;13.65;70.26;95258.47;5037619;28;20453;-59
2023/05/20 00:41:08;;;;;;;10.43;9.10;;;13.50;99.90;;;13.61;69.93;95266.69;5044527;28;21153;-65
2023/05/20 00:43:35;;;;;;;15.27;9.00;;;13.50;99.90;;;13.60;70.19;95262.41;5039433;28;20878;-64
2023/05/20 00:46:02;;;;;;;19.37;10.40;;;13.40;99.90;;;13.56;69.90;95261.03;5044740;28;20609;-63
2023/05/20 00:48:32;;;;;;;13.43;8.67;;;13.40;99.90;;;13.52;70.38;95257.00;5043731;28;20523;-64
2023/05/20 00:51:01;;;;;;;24.33;9.60;;;13.40;99.90;;;13.48;70.35;95263.59;5043524;28;20544;-60
2023/05/20 00:53:30;;;;;;;11.10;7.80;;;13.30;99.90;;;13.44;70.33;95256.94;5038322;28;20482;-61
2023/05/20 00:55:57;;;;;;;18.33;8.97;;;13.30;99.90;;;13.42;70.74;95258.91;5041930;28;20953;-65
2023/05/20 00:58:24;;;;;;;12.73;9.47;;;13.20;99.90;;;13.40;70.71;95260.84;5037223;28;20977;-62
2023/05/20 01:00:51;;;;;;;12.13;8.80;;;13.20;99.90;;;13.36;70.44;95255.03;5038577;28;20468;-64
2023/05/20 01:03:19;;;;;;;16.17;9.67;;;13.20;99.90;;;13.34;71.03;95253.50;5041368;28;20468;-64
2023/05/20 01:05:46;;;;;;;13.43;8.60;;;13.20;99.90;;;13.31;70.96;95257.25;5043982;28;20941;-59
2023/05/20 01:08:13;;;;;;;21.67;8.93;;;13.10;99.90;;;13.31;70.90;95243.19;5041840;28;20491;-59
2023/05/20 01:10:44;;;;;;;10.53;8.50;;;13.10;99.90;;;13.32;71.24;95248.34;5035365;28;20456;-59
2023/05/20 01:13:15;;;;;;;10.37;7.77;;;13.20;99.90;;;13.32;71.34;95256.25;5042191;28;20478;-62
2023/05/20 01:15:42;;;;;;;18.43;8.23;;;13.20;99.90;;;13.33;71.38;95255.31;5047077;28;20459;-59
2023/05/20 01:18:10;;;;;;;10.37;7.80;;;13.20;99.90;;;13.33;71.05;95255.31;5042354;28;20456;-63
2023/05/20 01:20:38;;;;;;;10.30;8.23;;;13.20;99.90;;;13.33;71.13;95251.81;5042312;28;20542;-63
2023/05/20 01:23:07;;;;;;;13.57;8.47;;;13.20;99.90;;;13.34;71.30;95253.50;5044542;28;20453;-59
2023/05/20 01:25:34;;;;;;;11.90;8.97;;;13.20;99.90;;;13.35;71.32;95260.47;5034802;28;20535;-60
2023/05/20 01:28:01;;;;;;;18.53;8.23;;;13.20;99.90;;;13.34;71.12;95253.50;5042771;28;20491;-65
2023/05/20 01:30:43;;;;;;;8.93;7.10;;;13.10;99.90;;;13.34;70.88;95261.44;5038678;28;20957;-64
2023/05/20 01:33:12;;;;;;;14.00;7.27;;;13.20;99.90;;;13.31;71.06;95251.97;5044914;28;20451;-60
2023/05/20 01:35:39;;;;;;;13.87;6.80;;;13.20;99.90;;;13.31;70.96;95256.41;5039524;28;20976;-61
2023/05/20 01:38:08;;;;;;;10.47;8.37;;;13.10;99.90;;;13.28;70.83;95255.72;5039249;28;20976;-62
2023/05/20 01:40:35;;;;;;;12.23;7.87;;;13.10;99.90;;;13.26;70.89;95246.28;5037669;28;20551;-64
2023/05/20 01:43:03;;;;;;;8.43;7.30;;;13.10;99.90;;;13.27;71.11;95247.94;5039836;28;20479;-63
2023/05/20 01:45:30;;;;;;;12.00;7.63;;;13.10;99.90;;;13.25;71.58;95248.09;5036672;28;20468;-59
2023/05/20 01:47:57;;;;;;;14.00;8.20;;;13.10;99.90;;;13.26;70.97;95254.19;5039149;28;20475;-59
2023/05/20 01:50:25;;;;;;;9.97;7.40;;;13.10;99.90;;;13.25;71.25;95248.09;5040178;28;20547;-64
2023/05/20 01:52:52;;;;;;;14.60;7.37;;;13.10;99.90;;;13.25;71.05;95242.00;5037178;28;20475;-62
2023/05/20 01:55:21;;;;;;;14.13;8.37;;;13.10;99.90;;;13.24;71.07;95249.06;5039958;28;20569;-59
2023/05/20 01:57:49;;;;;;;13.70;8.00;;;13.10;99.90;;;13.23;71.01;95244.78;5046541;28;20479;-60
2023/05/20 02:00:16;;;;;;;14.60;8.80;;;13.10;99.90;;;13.22;71.02;95251.03;5038689;28;20984;-64
2023/05/20 02:02:44;;;;;;;8.53;7.20;;;13.10;99.90;;;13.22;71.31;95247.56;5038964;28;20472;-65
2023/05/20 02:05:11;;;;;;;11.60;7.90;;;13.10;99.90;;;13.22;70.85;95251.03;5037401;28;20463;-64
2023/05/20 02:07:38;;;;;;;19.73;8.27;;;13.10;99.90;;;13.22;70.70;95239.66;5040847;28;20479;-63
2023/05/20 02:10:07;;;;;;;12.90;8.23;;;13.10;99.90;;;13.20;70.94;95239.78;5037196;28;20565;-60
2023/05/20 02:12:36;;;;;;;10.20;8.10;;;13.10;99.90;;;13.18;70.97;95243.56;5041429;28;20460;-60
2023/05/20 02:15:04;;;;;;;10.97;7.47;;;13.00;99.90;;;13.14;70.65;95237.75;5039145;28;20549;-63
2023/05/20 02:17:31;;;;;;;15.63;8.30;;;13.00;99.90;;;13.13;70.76;95246.63;5040331;28;20521;-63
2023/05/20 02:19:59;;;;;;;11.43;8.73;;;13.00;99.90;;;13.10;71.47;95239.00;5037501;28;20466;-64
2023/05/20 02:22:26;;;;;;;13.53;8.50;;;12.90;99.90;;;13.06;71.31;95238.47;5039653;28;20512;-64
2023/05/20 02:24:53;;;;;;;9.17;7.50;;;12.90;99.90;;;13.08;70.75;95236.50;5043159;28;20948;-64
2023/05/20 02:27:20;;;;;;;13.23;8.30;;;12.90;99.90;;;13.06;71.07;95232.38;5043529;28;20479;-60
2023/05/20 02:29:49;;;;;;;13.80;7.80;;;12.90;99.90;;;13.02;71.52;95229.16;5037077;28;20488;-59
2023/05/20 02:32:16;;;;;;;13.23;9.17;;;12.90;99.90;;;12.98;71.29;95235.72;5043456;28;20476;-63
2023/05/20 02:34:44;;;;;;;14.63;8.03;;;12.80;99.90;;;12.93;71.53;95237.13;5034135;28;20940;-59
2023/05/20 02:37:11;;;;;;;16.27;8.10;;;12.80;99.90;;;12.89;71.50;95232.16;5040968;28;20483;-63
2023/05/20 02:39:38;;;;;;;12.63;9.13;;;12.80;99.90;;;12.85;71.31;95237.84;5039248;28;20459;-59
2023/05/20 02:42:06;;;;;;;17.13;9.00;;;12.70;99.90;;;12.82;72.10;95233.69;5042068;28;20563;-63
2023/05/20 02:44:33;;;;;;;10.87;7.97;;;12.70;99.90;;;12.81;72.00;95233.84;5042063;28;20537;-63
2023/05/20 02:47:01;;;;;;;13.37;9.30;;;12.70;99.90;;;12.82;72.33;95241.59;5051340;28;20482;-62
2023/05/20 02:49:29;;;;;;;16.60;8.87;;;12.70;99.90;;;12.83;72.01;95239.81;5047749;28;20494;-65
2023/05/20 02:51:56;;;;;;;40.17;8.83;;;12.70;99.90;;;12.84;72.53;95229.13;5042906;28;21037;-64
2023/05/20 02:54:23;;;;;;;14.43;8.63;;;12.70;99.90;;;12.85;72.26;95233.41;5044315;28;20459;-60
2023/05/20 02:56:51;;;;;;;22.20;9.57;;;12.70;99.90;;;12.86;72.55;95242.19;5046125;28;20475;-63
2023/05/20 02:59:18;;;;;;;13.90;8.60;;;12.70;99.90;;;12.86;72.39;95242.19;5050066;28;20478;-60
2023/05/20 03:01:45;;;;;;;15.83;9.33;;;12.70;99.90;;;12.86;72.28;95236.91;5041308;28;20475;-64
2023/05/20 03:04:14;;;;;;;13.83;9.23;;;12.70;99.90;;;12.85;72.36;95246.59;5045312;28;20468;-64
2023/05/20 03:06:43;;;;;;;13.17;9.17;;;12.70;99.90;;;12.84;72.43;95244.09;5040304;28;20480;-64
2023/05/20 03:09:10;;;;;;;20.53;11.43;;;12.70;99.90;;;12.84;72.63;95249.38;5039856;28;20498;-63
2023/05/20 03:11:37;;;;;;;22.90;10.70;;;12.70;99.90;;;12.83;72.92;95253.03;5041053;28;20478;-59
2023/05/20 03:14:05;;;;;;;21.93;9.97;;;12.70;99.90;;;12.83;72.74;95253.84;5051116;28;20493;-65
2023/05/20 03:16:34;;;;;;;24.33;14.10;;;12.70;99.90;;;12.81;72.79;95261.09;5045999;28;20912;-59
2023/05/20 03:19:01;;;;;;;15.37;10.07;;;12.70;99.90;;;12.82;72.67;95261.91;5038686;28;20814;-59
2023/05/20 03:21:30;;;;;;;17.20;9.23;;;12.70;99.90;;;12.84;72.33;95262.59;5041154;28;20483;-59
2023/05/20 03:23:57;;;;;;;15.53;9.37;;;12.70;99.90;;;12.85;72.64;95273.00;5045564;28;20465;-64
2023/05/20 03:26:25;;;;;;;11.13;9.00;;;12.70;99.90;;;12.85;72.55;95267.72;5041644;28;20468;-62
2023/05/20 03:28:52;;;;;;;19.90;8.83;;;12.70;99.90;;;12.85;72.86;95265.09;5046442;28;20527;-64
2023/05/20 03:31:19;;;;;;;15.63;9.40;;;12.70;99.90;;;12.86;72.94;95258.84;5041547;28;20563;-65
2023/05/20 03:33:47;;;;;;;14.07;10.03;;;12.80;99.90;;;12.85;72.72;95262.44;5040571;28;20441;-65
2023/05/20 03:36:14;;;;;;;14.83;9.67;;;12.80;99.90;;;12.84;72.56;95259.94;5051335;28;20542;-65
2023/05/20 03:38:44;;;;;;;17.70;9.50;;;12.70;99.90;;;12.84;72.83;95266.06;5037973;28;21046;-64
2023/05/20 03:41:12;;;;;;;18.43;9.57;;;12.70;99.90;;;12.86;72.64;95268.56;5044373;28;20476;-60
2023/05/20 03:43:39;;;;;;;20.30;10.20;;;12.80;99.90;;;12.87;73.00;95262.28;5046141;28;20838;-64
2023/05/20 03:46:07;;;;;;;19.03;9.80;;;12.70;99.90;;;12.88;72.87;95272.72;5046447;28;20533;-64
2023/05/20 03:48:34;;;;;;;21.27;10.60;;;12.70;99.90;;;12.90;72.81;95276.06;5043130;28;20463;-64
2023/05/20 03:51:02;;;;;;;28.53;10.40;;;12.80;99.90;;;12.93;72.77;95279.38;5045183;28;21003;-65
2023/05/20 03:53:29;;;;;;;15.37;10.43;;;12.80;99.90;;;12.94;72.79;95279.25;5043034;28;20531;-64
2023/05/20 03:55:58;;;;;;;16.50;11.10;;;12.80;99.90;;;12.95;72.55;95277.41;5038909;28;20463;-59
2023/05/20 03:58:27;;;;;;;14.00;9.87;;;12.80;99.90;;;12.95;72.83;95280.06;5044865;28;20876;-60
2023/05/20 04:00:55;;;;;;;24.70;9.93;;;12.80;99.90;;;12.98;73.15;95285.06;5045304;28;20464;-64
2023/05/20 04:03:22;;;;;;;30.00;11.10;;;12.80;99.90;;;13.01;72.93;95284.75;5038230;28;20465;-59
2023/05/20 04:05:49;;;;;;;23.20;11.20;;;12.90;99.90;;;13.03;73.25;95285.47;5047506;28;20543;-65
2023/05/20 04:08:17;;;;;;;16.87;12.40;;;12.90;99.90;;;13.07;73.18;95286.81;5050321;28;20509;-64
2023/05/20 04:10:45;;;;;;;17.80;12.13;;;12.90;99.90;;;13.11;73.07;95293.50;5048932;28;20523;-65
2023/05/20 04:13:15;;;;;;;18.20;10.90;;;12.90;99.90;;;13.15;72.66;95291.38;5048678;28;21063;-63
2023/05/20 04:15:42;;;;;;;17.53;12.17;;;13.00;99.90;;;13.17;72.75;95302.66;5042467;28;21011;-59
2023/05/20 04:18:09;;;;;;;21.30;11.23;;;13.00;99.90;;;13.20;72.66;95291.75;5040743;28;20463;-64
2023/05/20 04:20:37;;;;;;;22.20;11.50;;;13.00;99.90;;;13.23;72.34;95302.03;5041744;28;20957;-65
2023/05/20 04:23:04;;;;;;;20.13;10.80;;;13.10;99.90;;;13.25;72.59;95300.94;5038038;28;20480;-61
2023/05/20 04:25:32;;;;;;;23.67;11.57;;;13.10;99.90;;;13.28;72.44;95292.72;5048674;28;20464;-59
2023/05/20 04:27:59;;;;;;;19.70;13.03;;;13.10;99.90;;;13.33;72.43;95302.03;5035314;28;20559;-65
2023/05/20 04:30:28;;;;;;;19.80;11.87;;;13.10;99.90;;;13.35;72.27;95298.25;5040124;28;20575;-59
2023/05/20 04:32:56;;;;;;;20.17;11.40;;;13.20;99.90;;;13.38;72.18;95294.50;5039950;28;20866;-60
2023/05/20 04:35:24;;;;;;;21.40;11.70;;;13.20;99.90;;;13.40;72.25;95303.97;5041606;28;20471;-64
2023/05/20 04:37:53;;;;;;;31.90;12.50;;;13.20;99.90;;;13.44;72.47;95300.03;5039977;28;20570;-64
2023/05/20 04:40:21;;;;;;;17.10;10.40;;;13.30;99.90;;;13.50;72.48;95293.34;5039964;28;20593;-64
2023/05/20 04:42:49;;;;;;;17.70;11.80;;;13.30;99.90;;;13.54;72.54;95299.16;5046651;28;20480;-60
2023/05/20 04:45:17;;;;;;;18.30;11.00;;;13.40;99.90;;;13.58;72.44;95304.00;5031557;28;21324;-61
2023/05/20 04:47:45;;;;;;;26.47;12.73;;;13.40;99.90;;;13.62;72.22;95302.72;5044752;28;20506;-60
2023/05/20 04:50:13;;;;;;;16.70;11.23;;;13.50;99.90;;;13.66;71.81;95305.06;5038620;28;20488;-64
2023/05/20 04:52:41;;;;;;;23.03;11.17;;;13.50;99.90;;;13.69;71.78;95312.72;5047124;28;20473;-63
2023/05/20 04:55:09;;;;;;;26.63;12.00;;;13.50;99.90;;;13.74;72.21;95305.16;5032378;28;20465;-65
2023/05/20 04:57:40;;;;;;;21.73;11.93;;;13.50;99.90;;;13.80;72.27;95310.69;5042414;28;20537;-61
2023/05/20 05:00:09;;;;;;;14.47;11.00;;;13.60;99.90;;;13.87;72.08;95304.81;5039072;28;20957;-65
2023/05/20 05:02:36;;;;;;;17.33;11.77;;;13.70;99.90;;;13.95;71.77;95300.44;5030557;28;20492;-63
2023/05/20 05:05:06;;;;;;;18.60;11.50;;;13.80;99.90;;;14.03;71.50;95296.22;5041776;28;20444;-61
2023/05/20 05:07:33;;;;;;;19.30;11.20;;;13.80;99.90;;;14.09;71.51;95298.25;5033607;28;20496;-59
2023/05/20 05:10:01;;;;;;;22.63;11.83;;;13.90;99.90;;;14.16;71.77;95307.25;5041195;28;21146;-60
2023/05/20 05:12:28;;;;;;;22.10;11.37;;;14.00;99.90;;;14.22;71.38;95308.44;5037704;28;20542;-64
2023/05/20 05:14:57;;;;;;;20.70;12.40;;;14.00;99.90;;;14.31;71.31;95305.75;5041326;28;20486;-65
2023/05/20 05:17:24;;;;;;;26.93;12.13;;;14.10;99.90;;;14.44;71.40;95308.00;5049524;28;20835;-59
2023/05/20 05:19:52;;;;;;;21.07;12.07;;;14.20;99.90;;;14.56;71.04;95294.50;5040492;28;20459;-61
2023/05/20 05:22:21;;;;;;;19.63;12.57;;;14.30;99.90;;;14.74;70.77;95302.47;5041513;28;21003;-64
2023/05/20 05:24:48;;;;;;;15.53;11.50;;;14.50;99.90;;;14.88;70.33;95294.75;5041610;28;20506;-66
2023/05/20 05:27:15;;;;;;;33.33;11.07;;;14.60;99.90;;;15.08;70.27;95299.03;5041670;28;20467;-60
2023/05/20 05:29:42;;;;;;;26.47;11.73;;;14.80;99.90;;;15.26;69.82;95302.44;5044134;28;20501;-61
2023/05/20 05:32:10;;;;;;;18.87;12.10;;;14.90;99.90;;;15.46;69.20;95294.25;5047622;28;20899;-65
2023/05/20 05:34:37;;;;;;;280.67;22.77;;;15.20;99.90;;;15.65;68.81;95296.63;5040856;28;20471;-66
2023/05/20 05:37:05;;;;;;;20.63;11.80;;;15.30;99.90;;;15.84;68.55;95290.25;5041223;28;20489;-62
2023/05/20 05:39:36;;;;;;;17.70;12.20;;;15.50;99.90;;;16.06;68.46;95294.09;5043025;28;20554;-66
2023/05/20 05:42:04;;;;;;;44.27;14.23;;;15.70;99.90;;;16.31;68.19;95288.84;5036661;28;20562;-62
2023/05/20 05:44:31;;;;;;;27.83;14.23;;;15.90;99.90;;;16.54;67.96;95289.00;5038765;28;20463;-62
2023/05/20 05:46:59;;;;;;;25.60;14.50;;;16.10;99.90;;;16.77;66.75;95291.81;5037145;28;20476;-61
2023/05/20 05:49:26;;;;;;;26.23;14.40;;;16.40;99.90;;;17.01;66.91;95298.97;5038581;28;20443;-62
2023/05/20 05:51:53;;;;;;;22.57;13.77;;;16.60;99.90;;;17.22;65.96;95292.25;5042444;28;20533;-61
2023/05/20 05:54:21;;;;;;;28.73;14.00;;;16.80;99.90;;;17.42;65.65;95290.03;5039723;28;20460;-63
2023/05/20 05:56:51;;;;;;;23.77;13.13;;;17.00;99.90;;;17.67;65.90;95281.97;5037194;28;20482;-62
2023/05/20 05:59:18;;;;;;;27.80;13.37;;;17.30;99.90;;;17.92;65.17;95286.19;5044938;28;20447;-65
2023/05/20 06:01:46;;;;;;;20.03;13.00;;;17.50;99.90;;;18.15;64.18;95280.06;5044295;28;20606;-64
2023/05/20 06:04:13;;;;;;;23.93;14.10;;;17.70;99.90;;;18.35;63.76;95285.75;5047704;28;21042;-65
2023/05/20 06:06:41;;;;;;;25.57;13.63;;;17.90;99.90;;;18.55;63.78;95286.09;5041069;28;20484;-61
2023/05/20 06:09:08;;;;;;;24.47;12.83;;;18.10;99.90;;;18.76;63.36;95282.75;5041896;28;20914;-65
2023/05/20 06:11:35;;;;;;;22.00;12.80;;;18.30;99.90;;;19.01;62.41;95284.38;5035330;28;20498;-59
2023/05/20 06:14:04;;;;;;;29.80;13.90;;;18.50;99.90;;;19.23;62.08;95278.16;5040676;28;20630;-65
2023/05/20 06:16:31;;;;;;;18.60;12.07;;;18.80;99.90;;;19.45;61.64;95279.06;5039403;28;20479;-68
2023/05/20 06:18:59;;;;;;;16.47;12.03;;;19.00;99.90;;;19.63;60.63;95280.53;5046404;28;20463;-67
2023/05/20 06:21:26;;;;;;;29.93;12.73;;;19.20;99.90;;;19.74;60.53;95276.56;5043997;28;20483;-65
2023/05/20 06:23:53;;;;;;;29.27;12.40;;;19.30;99.90;;;19.90;60.37;95271.03;5045703;28;21041;-61
2023/05/20 06:26:21;;;;;;;23.17;11.47;;;19.50;99.90;;;20.10;59.63;95276.59;5051398;28;20483;-61
2023/05/20 06:28:48;;;;;;;23.17;11.77;;;19.60;99.90;;;20.31;59.19;95272.28;5042713;28;20515;-66
2023/05/20 06:31:18;;;;;;;16.27;10.73;;;19.80;99.90;;;20.51;58.43;95272.47;5044986;28;20502;-60
2023/05/20 06:33:45;;;;;;;21.10;9.13;;;20.00;99.40;;;20.72;58.02;95267.13;5039830;28;20563;-72
2023/05/20 06:36:12;;;;;;;24.20;11.80;;;20.20;99.40;;;20.92;57.28;95255.78;5053686;28;20480;-69
2023/05/20 06:38:39;;;;;;;23.07;9.93;;;20.50;98.70;;;21.12;56.80;95251.38;5041495;28;20461;-68
2023/05/20 06:41:07;;;;;;;16.50;9.70;;;20.70;98.40;;;21.32;56.32;95250.69;5041390;28;20483;-60
2023/05/20 06:43:34;;;;;;;26.50;10.87;;;20.80;97.50;;;21.50;55.80;95252.84;5045656;28;20457;-63
2023/05/20 06:46:02;;;;;;;20.00;7.57;;;21.00;97.10;;;21.68;54.88;95246.97;5046766;28;20509;-61
2023/05/20 06:48:30;;;;;;;17.57;7.87;;;21.20;96.60;;;21.81;54.06;95244.34;5049348;28;20525;-59
2023/05/20 06:50:58;;;;;;;12.53;8.03;;;21.30;95.90;;;21.97;53.08;95245.03;5039311;28;21047;-66
2023/05/20 06:53:25;;;;;;;7.97;7.17;;;21.50;94.80;;;22.11;53.57;95238.66;5047272;28;20459;-60
2023/05/20 06:55:55;;;;;;;9.60;7.70;;;21.60;95.20;;;22.30;53.33;95246.94;5048348;28;20473;-59
2023/05/20 06:58:23;;;;;;;16.90;8.60;;;21.80;95.10;;;22.40;52.62;95252.75;5050394;28;20456;-60
2023/05/20 07:00:50;;;;;;;14.63;8.43;;;21.90;94.20;;;22.44;52.23;95253.19;5041850;28;20517;-60
2023/05/20 07:03:18;;;;;;;19.43;9.13;;;22.00;93.50;;;22.49;51.88;95256.88;5045941;28;20460;-69
2023/05/20 07:05:46;;;;;;;15.37;8.23;;;22.10;93.70;;;22.62;52.21;95255.25;5042679;28;20463;-70
2023/05/20 07:08:14;;;;;;;11.87;6.90;;;22.10;93.20;;;22.70;50.97;95247.81;5058269;28;20443;-62
2023/05/20 07:10:42;;;;;;;11.20;7.40;;;22.20;92.70;;;22.78;50.39;95244.13;5050887;28;20491;-73
2023/05/20 07:13:09;;;;;;;10.47;7.60;;;22.30;91.20;;;22.90;50.48;95250.50;5038967;28;21034;-62
2023/05/20 07:15:36;;;;;;;9.90;7.33;;;22.40;91.60;;;23.05;49.75;95244.94;5040498;28;20472;-61
2023/05/20 07:18:04;;;;;;;23.00;8.53;;;22.60;91.10;;;23.21;48.78;95243.69;5040491;28;20510;-70
2023/05/20 07:20:31;;;;;;;23.13;8.70;;;22.70;90.30;;;23.35;49.49;95241.00;5046036;28;20464;-62
2023/05/20 07:23:02;;;;;;;15.47;7.83;;;22.80;90.00;;;23.47;48.56;95244.66;5046177;28;20637;-65
2023/05/20 07:25:30;;;;;;;20.73;6.80;;;23.00;89.40;;;23.60;48.57;95247.28;5043854;28;20452;-67
2023/05/20 07:27:58;;;;;;;11.60;7.10;;;23.10;88.10;;;23.73;47.80;95242.91;5050221;28;20500;-62
2023/05/20 07:30:26;;;;;;;13.50;6.33;;;23.20;87.40;;;23.85;47.21;95237.75;5040250;28;20866;-60
2023/05/20 07:32:53;;;;;;;10.10;6.30;;;23.30;85.70;;;23.93;46.75;95232.09;5045210;28;20483;-65
2023/05/20 07:35:20;;;;;;;9.40;6.00;;;23.40;84.50;;;23.89;46.58;95237.09;5039467;28;20462;-66
2023/05/20 07:37:47;;;;;;;7.40;6.03;;;23.40;82.30;;;23.80;45.80;95235.66;5046427;28;20475;-66
2023/05/20 07:40:16;;;;;;;6.50;5.90;;;23.30;81.70;;;23.80;46.69;95227.59;5041232;28;20956;-60
2023/05/20 07:42:44;;;;;;;11.20;6.10;;;23.30;81.50;;;23.90;46.19;95232.53;5043071;28;20532;-67
2023/05/20 07:45:11;;;;;;;7.40;5.97;;;23.50;82.10;;;24.01;46.41;95231.84;5045928;28;20521;-66
2023/05/20 07:47:39;;;;;;;11.60;6.60;;;23.50;81.30;;;24.13;45.26;95232.00;5039090;28;20487;-60
2023/05/20 07:50:07;;;;;;;14.43;7.10;;;23.60;80.10;;;24.27;45.26;95230.88;5039826;28;20448;-61
2023/05/20 07:52:34;;;;;;;11.87;6.93;;;23.70;78.90;;;24.44;44.67;95230.34;5042427;28;20468;-60
2023/05/20 07:55:02;;;;;;;8.93;6.60;;;23.90;78.50;;;24.50;44.49;95229.50;5041709;28;20479;-69
2023/05/20 07:57:31;;;;;;;6.47;5.87;;;24.00;76.80;;;24.56;44.34;95220.56;5041660;28;20580;-69
2023/05/20 07:59:58;;;;;;;7.73;6.43;;;24.10;76.20;;;24.65;44.15;95227.34;5043136;28;21051;-61
2023/05/20 08:02:26;;;;;;;8.73;5.67;;;24.20;76.50;;;24.65;43.87;95224.66;5040566;28;20467;-65
2023/05/20 08:04:53;;;;;;;6.47;5.80;;;24.20;75.10;;;24.62;43.36;95227.78;5047025;28;20483;-61
2023/05/20 08:07:21;;;;;;;18.07;6.03;;;24.20;74.00;;;24.65;42.75;95232.72;5047013;28;20471;-62
2023/05/20 08:09:48;;;;;;;7.40;6.00;;;24.20;71.90;;;24.60;42.97;95219.13;5047109;28;20444;-67
2023/05/20 08:12:15;;;;;;;12.60;5.80;;;24.20;72.90;;;24.60;43.51;95220.97;5047537;28;20491;-65
2023/05/20 08:14:44;;;;;;;8.70;5.43;;;24.20;73.20;;;24.61;43.46;95219.94;5050054;28;20470;-61
2023/05/20 08:17:12;;;;;;;8.53;6.97;;;24.20;73.60;;;24.75;43.54;95221.44;5048981;28;20472;-67
2023/05/20 08:19:39;;;;;;;8.23;6.33;;;24.30;73.40;;;24.98;43.58;95214.66;5045076;28;20753;-60
2023/05/20 08:22:07;;;;;;;9.60;6.57;;;24.50;73.80;;;25.14;42.17;95213.25;5045334;28;20586;-60
2023/05/20 08:24:35;;;;;;;7.43;6.50;;;24.60;70.90;;;25.34;43.19;95208.50;5042658;28;21030;-67
2023/05/20 08:27:03;;;;;;;11.97;7.20;;;24.80;72.40;;;25.58;43.03;95209.47;5039740;28;21058;-66
2023/05/20 08:29:30;;;;;;;8.00;6.07;;;25.00;71.90;;;25.84;41.19;95223.69;5036736;28;20948;-66
2023/05/20 08:31:59;;;;;;;7.57;5.70;;;25.30;69.80;;;25.99;42.29;95220.59;5039292;28;20584;-67
2023/05/20 08:34:26;;;;;;;6.40;5.80;;;25.50;70.80;;;26.07;42.10;95214.06;5044103;28;20454;-66
2023/05/20 08:36:53;;;;;;;19.67;6.90;;;25.60;70.40;;;26.17;42.29;95219.75;5040205;28;20474;-67
2023/05/20 08:39:21;;;;;;;7.20;5.63;;;25.60;70.10;;;26.20;41.85;95215.78;5043941;28;20451;-61
2023/05/20 08:41:48;;;;;;;6.53;5.10;;;25.70;69.20;;;26.16;41.64;95209.19;5046022;28;21023;-66
2023/05/20 08:44:15;;;;;;;9.93;5.80;;;25.70;68.00;;;26.15;41.32;95211.06;5046880;28;20553;-61
2023/05/20 08:46:43;;;;;;;6.20;5.53;;;25.70;67.90;;;26.06;41.50;95205.16;5043883;28;20482;-68
2023/05/20 08:49:11;;;;;;;13.43;6.70;;;25.70;67.50;;;26.06;41.77;95205.16;5046567;28;20456;-67
2023/05/20 08:51:39;;;;;;;8.77;6.30;;;25.60;67.70;;;26.15;41.39;95212.91;5046695;28;20491;-60
2023/05/20 08:54:06;;;;;;;10.20;6.70;;;25.60;67.60;;;26.18;40.89;95212.47;5046390;28;20879;-60
2023/05/20 08:56:34;;;;;;;6.77;5.60;;;25.70;66.90;;;26.15;41.39;95207.53;5044008;28;20482;-60
2023/05/20 08:59:01;;;;;;;8.40;6.50;;;25.70;67.30;;;26.17;41.51;95216.22;5045595;28;21101;-68
2023/05/20 09:01:28;;;;;;;9.50;6.30;;;25.70;67.30;;;26.16;40.98;95203.78;5045753;28;20467;-59
2023/05/20 09:03:56;;;;;;;12.63;5.77;;;25.70;65.70;;;26.14;41.41;95214.00;5045279;28;20459;-67
2023/05/20 09:06:24;;;;;;;7.27;6.20;;;25.70;66.60;;;26.11;40.97;95199.91;5046085;28;20868;-65
2023/05/20 09:08:51;;;;;;;6.43;5.83;;;25.70;65.60;;;26.15;41.17;95196.75;5045761;28;21168;-67
2023/05/20 09:11:20;;;;;;;6.60;5.73;;;25.70;65.80;;;26.22;40.60;95192.09;5046290;28;20483;-61
2023/05/20 09:13:47;;;;;;;8.10;5.40;;;25.70;64.90;;;26.25;40.56;95197.03;5046240;28;20469;-66
2023/05/20 09:16:15;;;;;;;7.20;5.47;;;25.80;63.60;;;26.27;40.74;95200.28;5046764;28;20482;-60
2023/05/20 09:18:42;;;;;;;13.70;6.00;;;25.80;65.10;;;26.23;40.33;95185.66;5044745;28;20444;-64
2023/05/20 09:21:10;;;;;;;6.50;5.90;;;25.80;64.30;;;26.25;40.38;95184.34;5045827;28;20471;-67
2023/05/20 09:23:39;;;;;;;5.53;5.00;;;25.80;64.50;;;26.33;40.51;95185.88;5045607;28;20803;-69
2023/05/20 09:26:06;;;;;;;8.47;6.03;;;25.80;64.30;;;26.35;40.16;95186.47;5045879;28;20455;-69
2023/05/20 09:28:36;;;;;;;9.13;5.20;;;25.90;63.20;;;26.40;39.44;95193.88;5043337;28;20883;-69
2023/05/20 09:31:05;;;;;;;14.37;6.10;;;25.90;61.90;;;26.46;39.65;95183.00;5048463;28;20472;-68
2023/05/20 09:33:34;;;;;;;6.57;5.97;;;26.00;62.70;;;26.43;38.19;95183.47;5044197;28;20480;-69
2023/05/20 09:36:04;;;;;;;9.60;5.97;;;26.00;59.90;;;26.36;39.67;95177.34;5045610;28;20463;-60
2023/05/20 09:38:36;;;;;;;15.67;6.10;;;25.90;61.60;;;26.39;40.10;95184.97;5043227;28;20458;-61
2023/05/20 09:41:08;;;;;;;9.30;5.40;;;25.90;63.10;;;26.42;38.79;95192.59;5045076;28;20469;-59
2023/05/20 09:43:36;;;;;;;7.03;5.23;;;26.00;61.60;;;26.36;39.25;95176.53;5045687;28;20475;-61
2023/05/20 09:46:03;;;;;;;19.27;8.03;;;25.90;61.20;;;26.30;39.92;95173.72;5045163;28;20463;-62
2023/05/20 09:48:30;;;;;;;13.20;7.57;;;25.90;62.20;;;26.35;40.23;95174.88;5043518;28;21359;-59
2023/05/20 09:50:58;;;;;;;7.40;5.70;;;25.90;62.70;;;26.38;39.46;95172.53;5047045;28;20569;-68
2023/05/20 09:53:27;;;;;;;11.33;6.03;;;25.90;61.80;;;26.34;39.43;95167.84;5046221;28;20454;-69
2023/05/20 09:55:55;;;;;;;14.80;7.30;;;25.90;61.40;;;26.34;39.49;95163.28;5043389;28;20451;-60
2023/05/20 09:58:24;;;;;;;10.60;5.07;;;25.90;61.50;;;26.43;40.03;95161.03;5044784;28;20447;-62
2023/05/20 10:00:52;;;;;;;11.83;5.43;;;25.90;62.10;;;26.47;39.33;95163.03;5045583;28;20454;-64
2023/05/20 10:03:21;;;;;;;8.40;5.30;;;26.00;60.10;;;26.48;39.18;95155.78;5043681;28;20959;-65
2023/05/20 10:05:59;;;;;;;6.90;6.23;;;26.00;60.10;;;26.42;38.33;95149.44;5046343;28;20458;-66
2023/05/20 10:08:41;;;;;;;7.20;5.73;;;26.00;58.90;;;26.35;37.28;95156.81;5044672;28;20431;-63
2023/05/20 10:11:15;;;;;;;8.27;6.47;;;25.90;58.60;;;26.26;37.21;95155.53;5044965;28;20486;-64
2023/05/20 10:14:06;;;;;;;9.10;5.83;;;25.90;58.00;;;26.19;38.40;95155.59;5044465;28;20536;-65
2023/05/20 10:16:41;;;;;;;12.37;5.43;;;25.80;59.20;;;26.14;38.13;95135.81;5038582;28;20502;-64